Accueil
METAR-TAF:

METAR-TAF

Aéroports :

Aéroport international de Gold Coast

Coolangatta, Australie

latitude: 28-10S, longitude: 153-30E, altitude: 6 m

Observation

Le bulletin a été fait il y a 42 minutes, à 00:00 UTC
Vent 7 kt de sud-ouest
Température 18°C
Humidité 56%
Pression 1020 hPa
Visibilité 10 km ou plus

METAR: YBCG 230000Z AUTO 22007KT 9999 // NCD 18/09 Q1020 RF00.0/000.0

Heure: 10:42 (00:42 UTC)

Prévision

Le bulletin a été fait il y a 1 heure et 30 minutes, à 23:12 UTC
Prévision valable du 23 à 00 UTC au 24 à 00 UTC
Vent 14 kt de sud/sud-ouest
Visibilité 10 km ou plus
Quelques nuages à une hauteur de 3500 ft
A partir de 23 à 1000 UTC
Vent 10 kt de sud/sud-ouest
Visibilité 10 km ou plus
Nuages épars à une hauteur de 2000 ft

TAF: YBCG 222312Z 2300/2400 20014KT 9999 FEW035 FM231000 21010KT 9999 SCT020

Observations et prévisions météorologiques de plus de 4000 aéroports (messages METAR et TAF).

Les stations disponibles sont représentées par des disques jaunes et rouges sur la carte.

Passer la souris dessus pour voir le nom de la station.

Cliquer dessus pour voir les observations et prévisions météorologiques.

Pour changer de carte: cliquez sur les boutons verts avec une croix noire pour zoomer, sur le bouton vert avec un tiret pour effectuer un zoom arrière, ou sur les flèches vertes pour les cartes adjacentes.


METAR-TAF: